sensor_id;sensor_type;location;lat;lon;timestamp;pressure;altitude;pressure_sealevel;temperature;humidity
35778;BME280;21899;42.662;23.316;2023-05-19T00:01:08;94599.69;;;11.34;100.00
35778;BME280;21899;42.662;23.316;2023-05-19T00:03:34;94609.28;;;11.42;100.00
35778;BME280;21899;42.662;23.316;2023-05-19T00:06:05;94604.69;;;11.46;100.00
35778;BME280;21899;42.662;23.316;2023-05-19T00:08:33;94583.25;;;11.32;100.00
35778;BME280;21899;42.662;23.316;2023-05-19T00:11:00;94599.31;;;11.46;100.00
35778;BME280;21899;42.662;23.316;2023-05-19T00:13:26;94595.88;;;11.49;100.00
35778;BME280;21899;42.662;23.316;2023-05-19T00:15:52;94600.44;;;11.55;100.00
35778;BME280;21899;42.662;23.316;2023-05-19T00:18:18;94594.34;;;11.44;100.00
35778;BME280;21899;42.662;23.316;2023-05-19T00:20:44;94598.53;;;11.52;100.00
35778;BME280;21899;42.662;23.316;2023-05-19T00:23:10;94594.34;;;11.51;100.00
35778;BME280;21899;42.662;23.316;2023-05-19T00:25:35;94583.63;;;11.48;100.00
35778;BME280;21899;42.662;23.316;2023-05-19T00:28:01;94592.06;;;11.50;100.00
35778;BME280;21899;42.662;23.316;2023-05-19T00:30:27;94577.09;;;11.45;100.00
35778;BME280;21899;42.662;23.316;2023-05-19T00:32:53;94590.88;;;11.51;100.00
35778;BME280;21899;42.662;23.316;2023-05-19T00:35:19;94589.38;;;11.50;100.00
35778;BME280;21899;42.662;23.316;2023-05-19T00:37:45;94579.41;;;11.40;100.00
35778;BME280;21899;42.662;23.316;2023-05-19T00:40:11;94582.50;;;11.42;100.00
35778;BME280;21899;42.662;23.316;2023-05-19T00:42:37;94585.53;;;11.44;100.00
35778;BME280;21899;42.662;23.316;2023-05-19T00:45:03;94582.47;;;11.45;100.00
35778;BME280;21899;42.662;23.316;2023-05-19T00:47:29;94584.00;;;11.46;100.00
35778;BME280;21899;42.662;23.316;2023-05-19T00:49:55;94575.59;;;11.44;100.00
35778;BME280;21899;42.662;23.316;2023-05-19T00:52:20;94574.06;;;11.43;100.00
35778;BME280;21899;42.662;23.316;2023-05-19T00:54:46;94571.75;;;11.35;100.00
35778;BME280;21899;42.662;23.316;2023-05-19T00:57:13;94564.88;;;11.27;100.00
35778;BME280;21899;42.662;23.316;2023-05-19T00:59:38;94582.47;;;11.28;100.00
35778;BME280;21899;42.662;23.316;2023-05-19T01:02:04;94575.22;;;11.21;100.00
35778;BME280;21899;42.662;23.316;2023-05-19T01:04:30;94570.22;;;11.13;100.00
35778;BME280;21899;42.662;23.316;2023-05-19T01:06:59;94572.13;;;11.12;100.00
35778;BME280;21899;42.662;23.316;2023-05-19T01:09:25;94570.97;;;10.99;100.00
35778;BME280;21899;42.662;23.316;2023-05-19T01:11:51;94566.41;;;10.86;100.00
35778;BME280;21899;42.662;23.316;2023-05-19T01:14:17;94570.19;;;10.78;100.00
35778;BME280;21899;42.662;23.316;2023-05-19T01:16:54;94578.25;;;10.74;100.00
35778;BME280;21899;42.662;23.316;2023-05-19T01:22:26;94578.22;;;10.64;100.00
35778;BME280;21899;42.662;23.316;2023-05-19T01:30:55;94567.84;;;10.51;100.00
35778;BME280;21899;42.662;23.316;2023-05-19T01:33:23;94572.03;;;10.42;100.00
35778;BME280;21899;42.662;23.316;2023-05-19T01:35:49;94560.19;;;10.46;100.00
35778;BME280;21899;42.662;23.316;2023-05-19T01:38:18;94566.72;;;10.49;100.00
35778;BME280;21899;42.662;23.316;2023-05-19T01:40:45;94557.50;;;10.46;100.00
35778;BME280;21899;42.662;23.316;2023-05-19T01:43:16;94577.81;;;10.51;100.00
35778;BME280;21899;42.662;23.316;2023-05-19T01:45:43;94578.53;;;10.48;100.00
35778;BME280;21899;42.662;23.316;2023-05-19T01:48:09;94578.19;;;10.46;100.00
35778;BME280;21899;42.662;23.316;2023-05-19T01:50:36;94581.97;;;10.34;100.00
35778;BME280;21899;42.662;23.316;2023-05-19T01:53:01;94584.22;;;10.29;100.00
35778;BME280;21899;42.662;23.316;2023-05-19T01:55:27;94583.03;;;10.19;100.00
35778;BME280;21899;42.662;23.316;2023-05-19T01:58:10;94582.25;;;10.15;100.00
35778;BME280;21899;42.662;23.316;2023-05-19T02:03:37;94584.94;;;10.15;100.00
35778;BME280;21899;42.662;23.316;2023-05-19T02:06:17;94585.31;;;10.17;100.00
35778;BME280;21899;42.662;23.316;2023-05-19T02:08:55;94580.72;;;10.14;100.00
35778;BME280;21899;42.662;23.316;2023-05-19T02:11:22;94586.84;;;10.18;100.00
35778;BME280;21899;42.662;23.316;2023-05-19T02:13:53;94587.25;;;10.20;100.00
35778;BME280;21899;42.662;23.316;2023-05-19T02:16:23;94585.72;;;10.19;100.00
35778;BME280;21899;42.662;23.316;2023-05-19T02:18:52;94591.78;;;10.16;100.00
35778;BME280;21899;42.662;23.316;2023-05-19T02:21:18;94571.13;;;10.06;100.00
35778;BME280;21899;42.662;23.316;2023-05-19T02:23:43;94583.03;;;10.19;100.00
35778;BME280;21899;42.662;23.316;2023-05-19T02:26:09;94587.66;;;10.26;100.00
35778;BME280;21899;42.662;23.316;2023-05-19T02:28:34;94593.38;;;10.31;100.00
35778;BME280;21899;42.662;23.316;2023-05-19T02:31:01;94584.22;;;10.29;100.00
35778;BME280;21899;42.662;23.316;2023-05-19T02:33:27;94581.50;;;10.22;100.00
35778;BME280;21899;42.662;23.316;2023-05-19T02:35:55;94591.44;;;10.21;100.00
35778;BME280;21899;42.662;23.316;2023-05-19T02:38:20;94571.53;;;10.08;100.00
35778;BME280;21899;42.662;23.316;2023-05-19T02:40:46;94586.44;;;10.09;100.00
35778;BME280;21899;42.662;23.316;2023-05-19T02:43:11;94600.63;;;10.20;100.00
35778;BME280;21899;42.662;23.316;2023-05-19T02:45:37;94591.06;;;10.19;100.00
35778;BME280;21899;42.662;23.316;2023-05-19T02:48:03;94594.13;;;10.18;100.00
35778;BME280;21899;42.662;23.316;2023-05-19T02:50:28;94591.44;;;10.14;100.00
35778;BME280;21899;42.662;23.316;2023-05-19T02:52:53;94601.75;;;10.16;100.00
35778;BME280;21899;42.662;23.316;2023-05-19T02:55:19;94594.09;;;10.11;100.00
35778;BME280;21899;42.662;23.316;2023-05-19T02:57:45;94579.09;;;9.99;100.00
35778;BME280;21899;42.662;23.316;2023-05-19T03:00:11;94599.44;;;10.14;100.00
35778;BME280;21899;42.662;23.316;2023-05-19T03:02:36;94604.81;;;10.21;100.00
35778;BME280;21899;42.662;23.316;2023-05-19T03:05:02;94592.59;;;10.20;100.00
35778;BME280;21899;42.662;23.316;2023-05-19T03:07:28;94587.63;;;10.19;100.00
35778;BME280;21899;42.662;23.316;2023-05-19T03:09:53;94586.44;;;10.16;100.00
35778;BME280;21899;42.662;23.316;2023-05-19T03:12:18;94594.88;;;10.22;100.00
35778;BME280;21899;42.662;23.316;2023-05-19T03:14:44;94601.41;;;10.24;100.00
35778;BME280;21899;42.662;23.316;2023-05-19T03:17:10;94609.81;;;10.26;100.00
35778;BME280;21899;42.662;23.316;2023-05-19T03:19:36;94606.00;;;10.27;100.00
35778;BME280;21899;42.662;23.316;2023-05-19T03:22:02;94608.69;;;10.27;100.00
35778;BME280;21899;42.662;23.316;2023-05-19T03:24:27;94608.31;;;10.29;100.00
35778;BME280;21899;42.662;23.316;2023-05-19T03:26:52;94608.72;;;10.34;100.00
35778;BME280;21899;42.662;23.316;2023-05-19T03:29:18;94605.69;;;10.39;100.00
35778;BME280;21899;42.662;23.316;2023-05-19T03:31:43;94592.66;;;10.34;100.00
35778;BME280;21899;42.662;23.316;2023-05-19T03:34:09;94609.91;;;10.51;100.00
35778;BME280;21899;42.662;23.316;2023-05-19T03:36:34;94609.19;;;10.58;100.00
35778;BME280;21899;42.662;23.316;2023-05-19T03:39:04;94611.13;;;10.68;100.00
35778;BME280;21899;42.662;23.316;2023-05-19T03:41:30;94609.19;;;10.72;100.00
35778;BME280;21899;42.662;23.316;2023-05-19T03:43:55;94607.66;;;10.78;100.00
35778;BME280;21899;42.662;23.316;2023-05-19T03:46:20;94609.22;;;10.79;100.00
35778;BME280;21899;42.662;23.316;2023-05-19T03:48:46;94610.72;;;10.76;100.00
35778;BME280;21899;42.662;23.316;2023-05-19T03:51:11;94613.44;;;10.90;100.00
35778;BME280;21899;42.662;23.316;2023-05-19T03:53:37;94618.81;;;10.97;100.00
35778;BME280;21899;42.662;23.316;2023-05-19T03:56:03;94618.06;;;11.07;100.00
35778;BME280;21899;42.662;23.316;2023-05-19T03:58:29;94617.31;;;11.14;100.00
35778;BME280;21899;42.662;23.316;2023-05-19T04:00:55;94623.06;;;11.26;100.00
35778;BME280;21899;42.662;23.316;2023-05-19T04:03:20;94619.22;;;11.27;100.00
35778;BME280;21899;42.662;23.316;2023-05-19T04:05:46;94629.19;;;11.44;100.00
35778;BME280;21899;42.662;23.316;2023-05-19T04:08:11;94637.63;;;11.64;100.00
35778;BME280;21899;42.662;23.316;2023-05-19T04:10:37;94618.47;;;11.76;100.00
35778;BME280;21899;42.662;23.316;2023-05-19T04:13:02;94611.94;;;11.91;100.00
35778;BME280;21899;42.662;23.316;2023-05-19T04:15:28;94625.31;;;12.05;100.00
35778;BME280;21899;42.662;23.316;2023-05-19T04:17:54;94618.41;;;12.11;100.00
35778;BME280;21899;42.662;23.316;2023-05-19T04:20:19;94615.34;;;12.16;100.00
35778;BME280;21899;42.662;23.316;2023-05-19T04:22:45;94632.47;;;12.43;100.00
35778;BME280;21899;42.662;23.316;2023-05-19T04:25:10;94632.84;;;12.45;100.00
35778;BME280;21899;42.662;23.316;2023-05-19T04:27:36;94646.19;;;12.70;100.00
35778;BME280;21899;42.662;23.316;2023-05-19T04:30:04;94624.97;;;12.86;100.00
35778;BME280;21899;42.662;23.316;2023-05-19T04:32:29;94628.31;;;13.15;100.00
35778;BME280;21899;42.662;23.316;2023-05-19T04:34:55;94639.25;;;13.41;100.00
35778;BME280;21899;42.662;23.316;2023-05-19T04:37:23;94641.81;;;13.59;100.00
35778;BME280;21899;42.662;23.316;2023-05-19T04:39:50;94650.00;;;13.89;100.00
35778;BME280;21899;42.662;23.316;2023-05-19T04:42:16;94652.63;;;13.99;100.00
35778;BME280;21899;42.662;23.316;2023-05-19T04:44:46;94646.97;;;14.24;100.00
35778;BME280;21899;42.662;23.316;2023-05-19T04:47:14;94649.84;;;14.81;100.00
35778;BME280;21899;42.662;23.316;2023-05-19T04:49:39;94640.50;;;15.15;96.82
35778;BME280;21899;42.662;23.316;2023-05-19T04:52:06;94644.19;;;15.28;94.23
35778;BME280;21899;42.662;23.316;2023-05-19T04:54:33;94652.13;;;14.82;96.03
35778;BME280;21899;42.662;23.316;2023-05-19T04:56:59;94658.53;;;14.24;99.54
35778;BME280;21899;42.662;23.316;2023-05-19T04:59:24;94652.59;;;14.03;100.00
35778;BME280;21899;42.662;23.316;2023-05-19T05:01:49;94653.34;;;14.00;100.00
35778;BME280;21899;42.662;23.316;2023-05-19T05:04:15;94659.53;;;13.97;100.00
35778;BME280;21899;42.662;23.316;2023-05-19T05:06:40;94638.81;;;13.94;100.00
35778;BME280;21899;42.662;23.316;2023-05-19T05:09:06;94660.50;;;14.17;100.00
35778;BME280;21899;42.662;23.316;2023-05-19T05:11:32;94643.31;;;14.07;100.00
35778;BME280;21899;42.662;23.316;2023-05-19T05:13:57;94652.97;;;14.42;100.00
35778;BME280;21899;42.662;23.316;2023-05-19T05:16:25;94646.81;;;14.75;99.01
35778;BME280;21899;42.662;23.316;2023-05-19T05:18:50;94652.28;;;14.68;99.00
35778;BME280;21899;42.662;23.316;2023-05-19T05:21:16;94636.56;;;14.63;99.13
35778;BME280;21899;42.662;23.316;2023-05-19T05:23:42;94639.44;;;14.79;98.10
35778;BME280;21899;42.662;23.316;2023-05-19T05:26:16;94642.97;;;15.03;97.27
35778;BME280;21899;42.662;23.316;2023-05-19T05:28:43;94649.59;;;15.55;93.95
35778;BME280;21899;42.662;23.316;2023-05-19T05:31:09;94652.38;;;15.98;91.13
35778;BME280;21899;42.662;23.316;2023-05-19T05:33:34;94657.16;;;16.33;88.80
35778;BME280;21899;42.662;23.316;2023-05-19T05:36:00;94657.13;;;16.56;87.54
35778;BME280;21899;42.662;23.316;2023-05-19T05:38:25;94660.25;;;16.74;84.21
35778;BME280;21899;42.662;23.316;2023-05-19T05:40:51;94664.75;;;17.00;84.26
35778;BME280;21899;42.662;23.316;2023-05-19T05:43:16;94640.00;;;17.18;82.17
35778;BME280;21899;42.662;23.316;2023-05-19T05:45:42;94668.88;;;17.05;80.63
35778;BME280;21899;42.662;23.316;2023-05-19T05:48:07;94659.19;;;16.68;83.59
35778;BME280;21899;42.662;23.316;2023-05-19T05:50:33;94666.03;;;16.53;84.16
35778;BME280;21899;42.662;23.316;2023-05-19T05:53:00;94652.28;;;16.67;84.11
35778;BME280;21899;42.662;23.316;2023-05-19T05:55:26;94666.28;;;16.81;82.66
35778;BME280;21899;42.662;23.316;2023-05-19T05:57:51;94667.13;;;17.14;82.72
35778;BME280;21899;42.662;23.316;2023-05-19T06:00:17;94670.56;;;17.34;79.40
35778;BME280;21899;42.662;23.316;2023-05-19T06:02:48;94665.59;;;17.68;80.00
35778;BME280;21899;42.662;23.316;2023-05-19T06:05:14;94673.53;;;17.40;78.06
35778;BME280;21899;42.662;23.316;2023-05-19T06:07:40;94685.38;;;17.30;79.37
35778;BME280;21899;42.662;23.316;2023-05-19T06:10:07;94679.38;;;16.83;81.64
35778;BME280;21899;42.662;23.316;2023-05-19T06:12:33;94690.88;;;17.07;80.74
35778;BME280;21899;42.662;23.316;2023-05-19T06:14:59;94688.22;;;17.03;80.15
35778;BME280;21899;42.662;23.316;2023-05-19T06:17:24;94695.66;;;17.19;80.58
35778;BME280;21899;42.662;23.316;2023-05-19T06:19:50;94684.06;;;17.18;80.30
35778;BME280;21899;42.662;23.316;2023-05-19T06:22:15;94686.41;;;17.16;80.79
35778;BME280;21899;42.662;23.316;2023-05-19T06:24:41;94691.44;;;16.98;81.39
35778;BME280;21899;42.662;23.316;2023-05-19T06:27:06;94685.94;;;17.02;82.12
35778;BME280;21899;42.662;23.316;2023-05-19T06:29:32;94683.13;;;16.89;80.34
35778;BME280;21899;42.662;23.316;2023-05-19T06:31:57;94691.97;;;16.70;81.67
35778;BME280;21899;42.662;23.316;2023-05-19T06:34:23;94689.28;;;16.70;83.63
35778;BME280;21899;42.662;23.316;2023-05-19T06:36:48;94674.50;;;16.55;83.30
35778;BME280;21899;42.662;23.316;2023-05-19T06:39:13;94693.50;;;16.71;84.34
35778;BME280;21899;42.662;23.316;2023-05-19T06:41:39;94683.41;;;16.75;81.20
35778;BME280;21899;42.662;23.316;2023-05-19T06:44:05;94688.25;;;16.83;80.36
35778;BME280;21899;42.662;23.316;2023-05-19T06:46:32;94671.13;;;16.70;79.13
35778;BME280;21899;42.662;23.316;2023-05-19T06:48:57;94685.81;;;16.69;80.27
35778;BME280;21899;42.662;23.316;2023-05-19T06:51:22;94692.22;;;16.79;79.30
35778;BME280;21899;42.662;23.316;2023-05-19T06:53:48;94688.53;;;16.89;78.72
35778;BME280;21899;42.662;23.316;2023-05-19T06:56:13;94701.69;;;16.87;78.72
35778;BME280;21899;42.662;23.316;2023-05-19T06:58:40;94703.16;;;16.72;78.03
35778;BME280;21899;42.662;23.316;2023-05-19T07:01:05;94703.69;;;16.63;76.85
35778;BME280;21899;42.662;23.316;2023-05-19T07:03:30;94696.56;;;16.73;76.47
35778;BME280;21899;42.662;23.316;2023-05-19T07:05:56;94704.09;;;17.01;74.40
35778;BME280;21899;42.662;23.316;2023-05-19T07:08:21;94698.03;;;16.97;75.42
35778;BME280;21899;42.662;23.316;2023-05-19T07:10:47;94704.94;;;17.18;76.71
35778;BME280;21899;42.662;23.316;2023-05-19T07:13:12;94704.66;;;17.32;75.68
35778;BME280;21899;42.662;23.316;2023-05-19T07:15:38;94706.16;;;17.52;75.89
35778;BME280;21899;42.662;23.316;2023-05-19T07:18:03;94701.78;;;17.58;76.24
35778;BME280;21899;42.662;23.316;2023-05-19T07:20:29;94707.25;;;17.55;74.83
35778;BME280;21899;42.662;23.316;2023-05-19T07:22:54;94706.63;;;17.83;73.89
35778;BME280;21899;42.662;23.316;2023-05-19T07:25:20;94715.41;;;17.87;71.06
35778;BME280;21899;42.662;23.316;2023-05-19T07:27:45;94710.34;;;17.89;71.92
35778;BME280;21899;42.662;23.316;2023-05-19T07:30:11;94717.53;;;18.11;72.13
35778;BME280;21899;42.662;23.316;2023-05-19T07:32:36;94703.31;;;18.23;69.49
35778;BME280;21899;42.662;23.316;2023-05-19T07:35:02;94716.28;;;18.16;69.28
35778;BME280;21899;42.662;23.316;2023-05-19T07:37:27;94709.16;;;18.22;70.38
35778;BME280;21899;42.662;23.316;2023-05-19T07:39:53;94710.59;;;18.27;68.82
35778;BME280;21899;42.662;23.316;2023-05-19T07:42:18;94706.03;;;18.07;69.10
35778;BME280;21899;42.662;23.316;2023-05-19T07:44:43;94710.75;;;18.52;68.19
35778;BME280;21899;42.662;23.316;2023-05-19T07:47:09;94705.38;;;18.93;66.28
35778;BME280;21899;42.662;23.316;2023-05-19T07:49:34;94713.69;;;19.43;61.89
35778;BME280;21899;42.662;23.316;2023-05-19T07:52:00;94711.44;;;19.79;61.69
35778;BME280;21899;42.662;23.316;2023-05-19T07:54:25;94714.03;;;19.95;59.55
35778;BME280;21899;42.662;23.316;2023-05-19T07:56:50;94710.97;;;19.93;59.44
35778;BME280;21899;42.662;23.316;2023-05-19T07:59:16;94711.63;;;19.97;59.48
35778;BME280;21899;42.662;23.316;2023-05-19T08:01:42;94705.78;;;19.86;57.92
35778;BME280;21899;42.662;23.316;2023-05-19T08:04:09;94697.72;;;19.95;58.78
35778;BME280;21899;42.662;23.316;2023-05-19T08:06:34;94710.56;;;19.95;56.88
35778;BME280;21899;42.662;23.316;2023-05-19T08:09:00;94708.50;;;19.86;58.18
35778;BME280;21899;42.662;23.316;2023-05-19T08:11:26;94708.03;;;20.00;57.40
35778;BME280;21899;42.662;23.316;2023-05-19T08:13:51;94705.31;;;20.00;57.17
35778;BME280;21899;42.662;23.316;2023-05-19T08:16:16;94712.28;;;20.01;57.77
35778;BME280;21899;42.662;23.316;2023-05-19T08:18:42;94712.09;;;19.83;57.61
35778;BME280;21899;42.662;23.316;2023-05-19T08:21:07;94712.50;;;19.69;58.50
35778;BME280;21899;42.662;23.316;2023-05-19T08:23:33;94708.13;;;19.34;58.37
35778;BME280;21899;42.662;23.316;2023-05-19T08:25:59;94712.63;;;19.53;59.23
35778;BME280;21899;42.662;23.316;2023-05-19T08:28:25;94712.28;;;19.51;58.74
35778;BME280;21899;42.662;23.316;2023-05-19T08:30:51;94701.97;;;19.46;57.35
35778;BME280;21899;42.662;23.316;2023-05-19T08:33:17;94701.13;;;19.62;58.36
35778;BME280;21899;42.662;23.316;2023-05-19T08:35:44;94696.00;;;19.76;58.50
35778;BME280;21899;42.662;23.316;2023-05-19T08:38:10;94704.91;;;19.89;56.31
35778;BME280;21899;42.662;23.316;2023-05-19T08:40:36;94692.63;;;19.85;55.68
35778;BME280;21899;42.662;23.316;2023-05-19T08:43:05;94706.75;;;19.67;55.49
35778;BME280;21899;42.662;23.316;2023-05-19T08:45:31;94709.31;;;19.45;56.37
35778;BME280;21899;42.662;23.316;2023-05-19T08:47:58;94695.91;;;19.26;57.75
35778;BME280;21899;42.662;23.316;2023-05-19T08:50:29;94689.19;;;19.18;57.71
35778;BME280;21899;42.662;23.316;2023-05-19T08:53:02;94707.03;;;19.03;58.60
35778;BME280;21899;42.662;23.316;2023-05-19T08:55:34;94700.97;;;18.99;58.70
35778;BME280;21899;42.662;23.316;2023-05-19T08:58:02;94697.03;;;18.87;59.46
35778;BME280;21899;42.662;23.316;2023-05-19T09:00:28;94698.97;;;18.87;60.45
35778;BME280;21899;42.662;23.316;2023-05-19T09:02:54;94689.97;;;18.61;59.41
35778;BME280;21899;42.662;23.316;2023-05-19T09:05:21;94697.28;;;18.32;60.87
35778;BME280;21899;42.662;23.316;2023-05-19T09:07:47;94692.88;;;18.38;62.17
35778;BME280;21899;42.662;23.316;2023-05-19T09:10:13;94688.75;;;18.17;61.86
35778;BME280;21899;42.662;23.316;2023-05-19T09:12:44;94689.69;;;18.27;63.27
35778;BME280;21899;42.662;23.316;2023-05-19T09:15:11;94686.53;;;18.29;62.39
35778;BME280;21899;42.662;23.316;2023-05-19T09:17:37;94682.97;;;18.32;64.16
35778;BME280;21899;42.662;23.316;2023-05-19T09:20:04;94684.75;;;18.38;62.56
35778;BME280;21899;42.662;23.316;2023-05-19T09:22:43;94673.78;;;18.58;63.80
35778;BME280;21899;42.662;23.316;2023-05-19T09:25:24;94672.38;;;18.82;62.72
35778;BME280;21899;42.662;23.316;2023-05-19T09:27:49;94673.63;;;19.06;61.77
35778;BME280;21899;42.662;23.316;2023-05-19T09:30:16;94681.72;;;19.22;61.56
35778;BME280;21899;42.662;23.316;2023-05-19T09:32:41;94679.47;;;19.33;57.68
35778;BME280;21899;42.662;23.316;2023-05-19T09:35:07;94678.38;;;19.56;57.80
35778;BME280;21899;42.662;23.316;2023-05-19T09:37:33;94674.50;;;19.69;58.23
35778;BME280;21899;42.662;23.316;2023-05-19T09:39:58;94679.69;;;19.64;56.53
35778;BME280;21899;42.662;23.316;2023-05-19T09:42:25;94677.75;;;19.64;56.64
35778;BME280;21899;42.662;23.316;2023-05-19T09:45:03;94667.63;;;19.52;57.08
35778;BME280;21899;42.662;23.316;2023-05-19T09:47:34;94667.44;;;19.47;55.72
35778;BME280;21899;42.662;23.316;2023-05-19T09:50:01;94669.25;;;19.37;56.44
35778;BME280;21899;42.662;23.316;2023-05-19T09:52:43;94667.28;;;19.25;56.60
35778;BME280;21899;42.662;23.316;2023-05-19T09:55:10;94672.53;;;19.32;57.11
35778;BME280;21899;42.662;23.316;2023-05-19T09:57:37;94675.56;;;19.59;54.27
35778;BME280;21899;42.662;23.316;2023-05-19T10:02:35;94664.56;;;20.00;54.03
35778;BME280;21899;42.662;23.316;2023-05-19T10:05:02;94666.75;;;19.80;53.15
35778;BME280;21899;42.662;23.316;2023-05-19T10:07:28;94657.84;;;19.67;54.42
35778;BME280;21899;42.662;23.316;2023-05-19T10:09:54;94665.69;;;19.78;55.18
35778;BME280;21899;42.662;23.316;2023-05-19T10:12:20;94665.78;;;19.74;54.84
35778;BME280;21899;42.662;23.316;2023-05-19T10:14:47;94660.88;;;19.82;54.71
35778;BME280;21899;42.662;23.316;2023-05-19T10:17:13;94658.03;;;20.10;54.68
35778;BME280;21899;42.662;23.316;2023-05-19T10:19:40;94662.00;;;20.43;53.00
35778;BME280;21899;42.662;23.316;2023-05-19T10:22:05;94651.69;;;20.38;53.34
35778;BME280;21899;42.662;23.316;2023-05-19T10:24:30;94663.25;;;20.64;53.43
35778;BME280;21899;42.662;23.316;2023-05-19T10:27:06;94661.84;;;20.81;50.66
35778;BME280;21899;42.662;23.316;2023-05-19T10:29:35;94661.28;;;20.86;47.85
35778;BME280;21899;42.662;23.316;2023-05-19T10:32:15;94657.00;;;20.98;48.72
35778;BME280;21899;42.662;23.316;2023-05-19T10:43:24;94651.16;;;21.30;45.13
35778;BME280;21899;42.662;23.316;2023-05-19T10:45:53;94644.94;;;21.29;45.61
35778;BME280;21899;42.662;23.316;2023-05-19T10:48:19;94637.31;;;21.46;46.74
35778;BME280;21899;42.662;23.316;2023-05-19T10:50:52;94637.63;;;21.48;45.40
35778;BME280;21899;42.662;23.316;2023-05-19T10:53:18;94641.25;;;21.54;45.46
35778;BME280;21899;42.662;23.316;2023-05-19T10:55:51;94636.88;;;21.17;43.09
35778;BME280;21899;42.662;23.316;2023-05-19T10:58:38;94645.59;;;21.12;44.60
35778;BME280;21899;42.662;23.316;2023-05-19T11:01:29;94616.69;;;21.36;45.18
35778;BME280;21899;42.662;23.316;2023-05-19T11:03:54;94625.72;;;21.63;43.78
35778;BME280;21899;42.662;23.316;2023-05-19T11:06:29;94623.09;;;21.90;43.93
35778;BME280;21899;42.662;23.316;2023-05-19T11:08:58;94623.66;;;22.34;43.87
35778;BME280;21899;42.662;23.316;2023-05-19T11:11:25;94630.34;;;22.60;41.63
35778;BME280;21899;42.662;23.316;2023-05-19T11:13:54;94620.78;;;22.74;41.78
35778;BME280;21899;42.662;23.316;2023-05-19T11:16:39;94633.38;;;22.80;41.49
35778;BME280;21899;42.662;23.316;2023-05-19T11:19:16;94633.81;;;22.79;41.00
35778;BME280;21899;42.662;23.316;2023-05-19T11:21:48;94616.69;;;22.60;41.32
35778;BME280;21899;42.662;23.316;2023-05-19T11:24:33;94626.06;;;22.50;42.05
35778;BME280;21899;42.662;23.316;2023-05-19T11:27:36;94631.81;;;22.34;39.50
35778;BME280;21899;42.662;23.316;2023-05-19T11:32:34;94623.78;;;22.13;41.31
35778;BME280;21899;42.662;23.316;2023-05-19T11:35:00;94617.44;;;21.76;42.54
35778;BME280;21899;42.662;23.316;2023-05-19T11:37:27;94607.41;;;21.64;42.31
35778;BME280;21899;42.662;23.316;2023-05-19T11:39:56;94618.09;;;21.49;41.98
35778;BME280;21899;42.662;23.316;2023-05-19T11:42:22;94619.44;;;21.45;43.19
35778;BME280;21899;42.662;23.316;2023-05-19T11:44:48;94623.66;;;21.37;42.52
35778;BME280;21899;42.662;23.316;2023-05-19T11:47:14;94625.44;;;20.88;44.03
35778;BME280;21899;42.662;23.316;2023-05-19T11:49:50;94629.25;;;20.68;51.20
35778;BME280;21899;42.662;23.316;2023-05-19T11:52:22;94634.28;;;19.77;53.95
35778;BME280;21899;42.662;23.316;2023-05-19T11:54:48;94653.34;;;18.41;64.14
35778;BME280;21899;42.662;23.316;2023-05-19T11:57:14;94647.72;;;17.55;71.03
35778;BME280;21899;42.662;23.316;2023-05-19T11:59:40;94653.09;;;17.03;78.05
35778;BME280;21899;42.662;23.316;2023-05-19T12:02:17;94659.97;;;16.88;86.65
35778;BME280;21899;42.662;23.316;2023-05-19T12:04:43;94656.28;;;16.78;92.78
35778;BME280;21899;42.662;23.316;2023-05-19T12:07:13;94678.47;;;16.70;88.11
35778;BME280;21899;42.662;23.316;2023-05-19T12:09:42;94691.63;;;16.68;79.82
35778;BME280;21899;42.662;23.316;2023-05-19T12:12:12;94688.09;;;16.71;82.17
35778;BME280;21899;42.662;23.316;2023-05-19T12:14:37;94677.44;;;16.64;89.01
35778;BME280;21899;42.662;23.316;2023-05-19T12:17:15;94694.13;;;16.36;96.95
35778;BME280;21899;42.662;23.316;2023-05-19T12:19:46;94688.50;;;16.04;100.00
35778;BME280;21899;42.662;23.316;2023-05-19T12:22:12;94703.31;;;15.96;100.00
35778;BME280;21899;42.662;23.316;2023-05-19T12:24:38;94706.25;;;15.82;100.00
35778;BME280;21899;42.662;23.316;2023-05-19T12:27:22;94696.69;;;15.74;100.00
35778;BME280;21899;42.662;23.316;2023-05-19T12:29:55;94686.31;;;15.45;100.00
35778;BME280;21899;42.662;23.316;2023-05-19T12:32:26;94689.97;;;15.32;100.00
35778;BME280;21899;42.662;23.316;2023-05-19T12:34:52;94684.97;;;15.30;100.00
35778;BME280;21899;42.662;23.316;2023-05-19T12:37:19;94681.06;;;15.35;100.00
35778;BME280;21899;42.662;23.316;2023-05-19T12:39:47;94672.03;;;15.48;100.00
35778;BME280;21899;42.662;23.316;2023-05-19T12:42:14;94668.09;;;15.80;100.00
35778;BME280;21899;42.662;23.316;2023-05-19T12:44:43;94669.09;;;16.12;100.00
35778;BME280;21899;42.662;23.316;2023-05-19T12:47:13;94669.59;;;16.50;100.00
35778;BME280;21899;42.662;23.316;2023-05-19T12:52:23;94648.16;;;17.53;92.90
35778;BME280;21899;42.662;23.316;2023-05-19T12:54:49;94643.91;;;17.84;85.29
35778;BME280;21899;42.662;23.316;2023-05-19T12:57:16;94640.09;;;18.14;77.36
35778;BME280;21899;42.662;23.316;2023-05-19T12:59:42;94625.72;;;18.30;77.99
35778;BME280;21899;42.662;23.316;2023-05-19T13:02:07;94636.53;;;18.62;76.08
35778;BME280;21899;42.662;23.316;2023-05-19T13:04:33;94631.25;;;18.71;71.93
35778;BME280;21899;42.662;23.316;2023-05-19T13:06:58;94618.13;;;18.82;72.12
35778;BME280;21899;42.662;23.316;2023-05-19T13:09:23;94633.69;;;19.06;72.44
35778;BME280;21899;42.662;23.316;2023-05-19T13:11:49;94631.00;;;19.19;68.42
35778;BME280;21899;42.662;23.316;2023-05-19T13:14:19;94618.84;;;19.23;64.56